sensor_id;sensor_type;location;lat;lon;timestamp;temperature;humidity
22698;DHT22;11516;51.612;7.510;2022-10-16T00:01:22;13.90;99.90
22698;DHT22;11516;51.612;7.510;2022-10-16T00:03:49;13.90;99.90
22698;DHT22;11516;51.612;7.510;2022-10-16T00:06:17;13.90;99.90
22698;DHT22;11516;51.612;7.510;2022-10-16T00:08:43;13.90;99.90
22698;DHT22;11516;51.612;7.510;2022-10-16T00:11:16;13.90;99.90
22698;DHT22;11516;51.612;7.510;2022-10-16T00:13:44;13.90;99.90
22698;DHT22;11516;51.612;7.510;2022-10-16T00:16:11;13.90;99.90
22698;DHT22;11516;51.612;7.510;2022-10-16T00:18:37;13.80;99.90
22698;DHT22;11516;51.612;7.510;2022-10-16T00:21:08;13.80;99.90
22698;DHT22;11516;51.612;7.510;2022-10-16T00:23:35;13.70;99.90
22698;DHT22;11516;51.612;7.510;2022-10-16T00:26:04;13.70;99.90
22698;DHT22;11516;51.612;7.510;2022-10-16T00:28:30;13.70;99.90
22698;DHT22;11516;51.612;7.510;2022-10-16T00:30:56;13.80;99.90
22698;DHT22;11516;51.612;7.510;2022-10-16T00:33:22;13.70;99.90
22698;DHT22;11516;51.612;7.510;2022-10-16T00:35:48;13.70;99.90
22698;DHT22;11516;51.612;7.510;2022-10-16T00:38:15;13.60;99.90
22698;DHT22;11516;51.612;7.510;2022-10-16T00:40:41;13.70;99.90
22698;DHT22;11516;51.612;7.510;2022-10-16T00:43:34;13.70;99.90
22698;DHT22;11516;51.612;7.510;2022-10-16T00:46:02;13.60;99.90
22698;DHT22;11516;51.612;7.510;2022-10-16T00:48:28;13.70;99.90
22698;DHT22;11516;51.612;7.510;2022-10-16T00:50:56;13.70;99.90
22698;DHT22;11516;51.612;7.510;2022-10-16T00:53:23;13.70;99.90
22698;DHT22;11516;51.612;7.510;2022-10-16T00:55:52;13.70;99.90
22698;DHT22;11516;51.612;7.510;2022-10-16T00:58:17;13.70;99.90
22698;DHT22;11516;51.612;7.510;2022-10-16T01:00:43;13.70;99.90
22698;DHT22;11516;51.612;7.510;2022-10-16T01:03:33;13.60;99.90
22698;DHT22;11516;51.612;7.510;2022-10-16T01:06:19;13.70;99.90
22698;DHT22;11516;51.612;7.510;2022-10-16T01:09:12;13.70;99.90
22698;DHT22;11516;51.612;7.510;2022-10-16T01:15:07;13.70;99.90
22698;DHT22;11516;51.612;7.510;2022-10-16T01:20:35;13.70;99.90
22698;DHT22;11516;51.612;7.510;2022-10-16T01:28:36;13.80;99.90
22698;DHT22;11516;51.612;7.510;2022-10-16T01:31:04;13.70;99.90
22698;DHT22;11516;51.612;7.510;2022-10-16T01:33:42;13.80;99.90
22698;DHT22;11516;51.612;7.510;2022-10-16T01:36:15;13.70;99.90
22698;DHT22;11516;51.612;7.510;2022-10-16T01:38:44;13.70;99.90
22698;DHT22;11516;51.612;7.510;2022-10-16T01:41:17;13.70;99.90
22698;DHT22;11516;51.612;7.510;2022-10-16T01:43:53;13.80;99.90
22698;DHT22;11516;51.612;7.510;2022-10-16T01:46:21;13.80;99.90
22698;DHT22;11516;51.612;7.510;2022-10-16T01:48:48;13.80;99.90
22698;DHT22;11516;51.612;7.510;2022-10-16T01:51:15;13.70;99.90
22698;DHT22;11516;51.612;7.510;2022-10-16T01:53:46;13.70;99.90
22698;DHT22;11516;51.612;7.510;2022-10-16T01:56:14;13.60;99.90
22698;DHT22;11516;51.612;7.510;2022-10-16T01:58:51;13.70;99.90
22698;DHT22;11516;51.612;7.510;2022-10-16T02:01:20;13.70;99.90
22698;DHT22;11516;51.612;7.510;2022-10-16T02:03:49;13.50;99.90
22698;DHT22;11516;51.612;7.510;2022-10-16T02:06:19;13.40;99.90
22698;DHT22;11516;51.612;7.510;2022-10-16T02:08:45;13.50;99.90
22698;DHT22;11516;51.612;7.510;2022-10-16T02:11:10;13.50;99.90
22698;DHT22;11516;51.612;7.510;2022-10-16T02:13:43;13.50;99.90
22698;DHT22;11516;51.612;7.510;2022-10-16T02:16:11;13.50;99.90
22698;DHT22;11516;51.612;7.510;2022-10-16T02:18:38;13.50;99.90
22698;DHT22;11516;51.612;7.510;2022-10-16T02:21:17;13.60;99.90
22698;DHT22;11516;51.612;7.510;2022-10-16T02:24:43;13.40;99.90
22698;DHT22;11516;51.612;7.510;2022-10-16T02:27:02;13.40;99.90
22698;DHT22;11516;51.612;7.510;2022-10-16T02:29:38;13.40;99.90
22698;DHT22;11516;51.612;7.510;2022-10-16T02:32:05;13.50;99.90
22698;DHT22;11516;51.612;7.510;2022-10-16T02:34:33;13.40;99.90
22698;DHT22;11516;51.612;7.510;2022-10-16T02:37:01;13.40;99.90
22698;DHT22;11516;51.612;7.510;2022-10-16T02:39:28;13.50;99.90
22698;DHT22;11516;51.612;7.510;2022-10-16T02:41:54;13.50;99.90
22698;DHT22;11516;51.612;7.510;2022-10-16T02:44:20;13.60;99.90
22698;DHT22;11516;51.612;7.510;2022-10-16T02:46:46;13.60;99.90
22698;DHT22;11516;51.612;7.510;2022-10-16T02:49:11;13.60;99.90
22698;DHT22;11516;51.612;7.510;2022-10-16T02:51:37;13.60;99.90
22698;DHT22;11516;51.612;7.510;2022-10-16T02:54:03;13.60;99.90
22698;DHT22;11516;51.612;7.510;2022-10-16T02:56:28;13.60;99.90
22698;DHT22;11516;51.612;7.510;2022-10-16T02:58:55;13.60;99.90
22698;DHT22;11516;51.612;7.510;2022-10-16T03:01:21;13.70;99.90
22698;DHT22;11516;51.612;7.510;2022-10-16T03:03:47;13.70;99.90
22698;DHT22;11516;51.612;7.510;2022-10-16T03:06:12;13.60;99.90
22698;DHT22;11516;51.612;7.510;2022-10-16T03:08:38;13.60;99.90
22698;DHT22;11516;51.612;7.510;2022-10-16T03:11:04;13.70;99.90
22698;DHT22;11516;51.612;7.510;2022-10-16T03:13:32;13.70;99.90
22698;DHT22;11516;51.612;7.510;2022-10-16T03:15:58;13.70;99.90
22698;DHT22;11516;51.612;7.510;2022-10-16T03:18:23;13.90;99.90
22698;DHT22;11516;51.612;7.510;2022-10-16T03:20:49;13.80;99.90
22698;DHT22;11516;51.612;7.510;2022-10-16T03:23:14;13.70;99.90
22698;DHT22;11516;51.612;7.510;2022-10-16T03:25:40;13.70;99.90
22698;DHT22;11516;51.612;7.510;2022-10-16T03:28:06;13.70;99.90
22698;DHT22;11516;51.612;7.510;2022-10-16T03:30:31;13.70;99.90
22698;DHT22;11516;51.612;7.510;2022-10-16T03:32:57;13.80;99.90
22698;DHT22;11516;51.612;7.510;2022-10-16T03:35:24;13.80;99.90
22698;DHT22;11516;51.612;7.510;2022-10-16T03:37:50;13.80;99.90
22698;DHT22;11516;51.612;7.510;2022-10-16T03:40:16;13.80;99.90
22698;DHT22;11516;51.612;7.510;2022-10-16T03:42:44;13.80;99.90
22698;DHT22;11516;51.612;7.510;2022-10-16T03:45:10;13.70;99.90
22698;DHT22;11516;51.612;7.510;2022-10-16T03:47:36;13.80;99.90
22698;DHT22;11516;51.612;7.510;2022-10-16T03:50:03;13.70;99.90
22698;DHT22;11516;51.612;7.510;2022-10-16T03:52:28;13.80;99.90
22698;DHT22;11516;51.612;7.510;2022-10-16T03:54:54;13.80;99.90
22698;DHT22;11516;51.612;7.510;2022-10-16T03:57:20;13.70;99.90
22698;DHT22;11516;51.612;7.510;2022-10-16T03:59:46;13.80;99.90
22698;DHT22;11516;51.612;7.510;2022-10-16T04:02:11;13.80;99.90
22698;DHT22;11516;51.612;7.510;2022-10-16T04:04:37;13.70;99.90
22698;DHT22;11516;51.612;7.510;2022-10-16T04:07:03;13.70;99.90
22698;DHT22;11516;51.612;7.510;2022-10-16T04:09:28;13.80;99.90
22698;DHT22;11516;51.612;7.510;2022-10-16T04:11:54;13.70;99.90
22698;DHT22;11516;51.612;7.510;2022-10-16T04:14:20;13.70;99.90
22698;DHT22;11516;51.612;7.510;2022-10-16T04:16:45;13.70;99.90
22698;DHT22;11516;51.612;7.510;2022-10-16T04:19:11;13.70;99.90
22698;DHT22;11516;51.612;7.510;2022-10-16T04:21:37;13.70;99.90
22698;DHT22;11516;51.612;7.510;2022-10-16T04:24:05;13.80;99.90
22698;DHT22;11516;51.612;7.510;2022-10-16T04:26:31;13.70;99.90
22698;DHT22;11516;51.612;7.510;2022-10-16T04:28:57;13.80;99.90
22698;DHT22;11516;51.612;7.510;2022-10-16T04:31:23;13.90;99.90
22698;DHT22;11516;51.612;7.510;2022-10-16T04:33:48;13.90;99.90
22698;DHT22;11516;51.612;7.510;2022-10-16T04:36:14;14.00;99.90
22698;DHT22;11516;51.612;7.510;2022-10-16T04:38:39;14.00;99.90
22698;DHT22;11516;51.612;7.510;2022-10-16T04:41:06;14.00;99.90
22698;DHT22;11516;51.612;7.510;2022-10-16T04:43:33;14.10;99.90
22698;DHT22;11516;51.612;7.510;2022-10-16T04:45:58;14.10;99.90
22698;DHT22;11516;51.612;7.510;2022-10-16T04:48:24;14.10;99.90
22698;DHT22;11516;51.612;7.510;2022-10-16T04:50:50;14.10;99.90
22698;DHT22;11516;51.612;7.510;2022-10-16T04:53:15;14.00;99.90
22698;DHT22;11516;51.612;7.510;2022-10-16T04:55:41;14.00;99.90
22698;DHT22;11516;51.612;7.510;2022-10-16T04:58:07;14.00;99.90
22698;DHT22;11516;51.612;7.510;2022-10-16T05:00:33;14.10;99.90
22698;DHT22;11516;51.612;7.510;2022-10-16T05:02:59;14.00;99.90
22698;DHT22;11516;51.612;7.510;2022-10-16T05:05:26;14.00;99.90
22698;DHT22;11516;51.612;7.510;2022-10-16T05:07:52;14.00;99.90
22698;DHT22;11516;51.612;7.510;2022-10-16T05:10:18;14.10;99.90
22698;DHT22;11516;51.612;7.510;2022-10-16T05:12:43;14.00;99.90
22698;DHT22;11516;51.612;7.510;2022-10-16T05:15:10;14.00;99.90
22698;DHT22;11516;51.612;7.510;2022-10-16T05:17:36;14.00;99.90
22698;DHT22;11516;51.612;7.510;2022-10-16T05:20:02;14.20;99.90
22698;DHT22;11516;51.612;7.510;2022-10-16T05:22:28;14.00;99.90
22698;DHT22;11516;51.612;7.510;2022-10-16T05:24:54;14.10;99.90
22698;DHT22;11516;51.612;7.510;2022-10-16T05:27:20;14.10;99.90
22698;DHT22;11516;51.612;7.510;2022-10-16T05:29:46;14.20;99.90
22698;DHT22;11516;51.612;7.510;2022-10-16T05:32:13;14.10;99.90
22698;DHT22;11516;51.612;7.510;2022-10-16T05:34:38;14.20;99.90
22698;DHT22;11516;51.612;7.510;2022-10-16T05:37:04;14.20;99.90
22698;DHT22;11516;51.612;7.510;2022-10-16T05:39:30;14.30;99.90
22698;DHT22;11516;51.612;7.510;2022-10-16T05:41:55;14.20;99.90
22698;DHT22;11516;51.612;7.510;2022-10-16T05:44:21;14.20;99.90
22698;DHT22;11516;51.612;7.510;2022-10-16T05:46:47;14.20;99.90
22698;DHT22;11516;51.612;7.510;2022-10-16T05:49:12;14.20;99.90
22698;DHT22;11516;51.612;7.510;2022-10-16T05:51:38;14.10;99.90
22698;DHT22;11516;51.612;7.510;2022-10-16T05:54:04;14.10;99.90
22698;DHT22;11516;51.612;7.510;2022-10-16T05:56:29;14.20;99.90
22698;DHT22;11516;51.612;7.510;2022-10-16T05:58:57;14.20;99.90
22698;DHT22;11516;51.612;7.510;2022-10-16T06:01:22;14.20;99.90
22698;DHT22;11516;51.612;7.510;2022-10-16T06:03:50;14.20;99.90
22698;DHT22;11516;51.612;7.510;2022-10-16T06:06:18;14.20;99.90
22698;DHT22;11516;51.612;7.510;2022-10-16T06:08:46;14.20;99.90
22698;DHT22;11516;51.612;7.510;2022-10-16T06:11:15;14.20;99.90
22698;DHT22;11516;51.612;7.510;2022-10-16T06:13:41;14.20;99.90
22698;DHT22;11516;51.612;7.510;2022-10-16T06:16:09;14.20;99.90
22698;DHT22;11516;51.612;7.510;2022-10-16T06:18:34;14.20;99.90
22698;DHT22;11516;51.612;7.510;2022-10-16T06:21:19;14.20;99.90
22698;DHT22;11516;51.612;7.510;2022-10-16T06:23:48;14.20;99.90
22698;DHT22;11516;51.612;7.510;2022-10-16T06:26:17;14.10;99.90
22698;DHT22;11516;51.612;7.510;2022-10-16T06:28:43;14.30;99.90
22698;DHT22;11516;51.612;7.510;2022-10-16T06:31:10;14.30;99.90
22698;DHT22;11516;51.612;7.510;2022-10-16T06:33:37;14.30;99.90
22698;DHT22;11516;51.612;7.510;2022-10-16T06:36:05;14.20;99.90
22698;DHT22;11516;51.612;7.510;2022-10-16T06:38:31;14.20;99.90
22698;DHT22;11516;51.612;7.510;2022-10-16T06:40:57;14.30;99.90
22698;DHT22;11516;51.612;7.510;2022-10-16T06:43:23;14.30;99.90
22698;DHT22;11516;51.612;7.510;2022-10-16T06:45:56;14.30;99.90
22698;DHT22;11516;51.612;7.510;2022-10-16T06:48:23;14.30;99.90
22698;DHT22;11516;51.612;7.510;2022-10-16T06:51:25;14.30;99.90
22698;DHT22;11516;51.612;7.510;2022-10-16T06:53:53;14.40;99.90
22698;DHT22;11516;51.612;7.510;2022-10-16T06:56:23;14.50;99.90
22698;DHT22;11516;51.612;7.510;2022-10-16T06:58:50;14.60;99.90
22698;DHT22;11516;51.612;7.510;2022-10-16T07:01:18;14.50;99.90
22698;DHT22;11516;51.612;7.510;2022-10-16T07:03:45;14.50;99.90
22698;DHT22;11516;51.612;7.510;2022-10-16T07:06:13;14.50;99.90
22698;DHT22;11516;51.612;7.510;2022-10-16T07:08:41;14.50;99.90
22698;DHT22;11516;51.612;7.510;2022-10-16T07:11:09;14.50;99.90
22698;DHT22;11516;51.612;7.510;2022-10-16T07:13:37;14.60;99.90
22698;DHT22;11516;51.612;7.510;2022-10-16T07:16:14;14.70;99.90
22698;DHT22;11516;51.612;7.510;2022-10-16T07:18:40;14.50;99.90
22698;DHT22;11516;51.612;7.510;2022-10-16T07:21:10;14.50;99.90
22698;DHT22;11516;51.612;7.510;2022-10-16T07:23:36;14.50;99.90
22698;DHT22;11516;51.612;7.510;2022-10-16T07:26:03;14.60;99.90
22698;DHT22;11516;51.612;7.510;2022-10-16T07:28:29;14.50;99.90
22698;DHT22;11516;51.612;7.510;2022-10-16T07:30:54;14.60;99.90
22698;DHT22;11516;51.612;7.510;2022-10-16T07:33:20;14.70;99.90
22698;DHT22;11516;51.612;7.510;2022-10-16T07:35:53;14.70;99.90
22698;DHT22;11516;51.612;7.510;2022-10-16T07:38:20;14.80;99.90
22698;DHT22;11516;51.612;7.510;2022-10-16T07:40:46;14.60;99.90
22698;DHT22;11516;51.612;7.510;2022-10-16T07:43:12;14.60;99.90
22698;DHT22;11516;51.612;7.510;2022-10-16T07:45:49;14.60;99.90
22698;DHT22;11516;51.612;7.510;2022-10-16T07:48:16;14.60;99.90
22698;DHT22;11516;51.612;7.510;2022-10-16T07:50:42;14.60;99.90
22698;DHT22;11516;51.612;7.510;2022-10-16T07:53:08;14.80;99.90
22698;DHT22;11516;51.612;7.510;2022-10-16T07:55:33;14.70;99.90
22698;DHT22;11516;51.612;7.510;2022-10-16T07:57:59;14.60;99.90
22698;DHT22;11516;51.612;7.510;2022-10-16T08:00:24;14.80;99.90
22698;DHT22;11516;51.612;7.510;2022-10-16T08:02:50;14.70;99.90
22698;DHT22;11516;51.612;7.510;2022-10-16T08:05:19;14.70;99.90
22698;DHT22;11516;51.612;7.510;2022-10-16T08:07:51;14.70;99.90
22698;DHT22;11516;51.612;7.510;2022-10-16T08:10:21;14.80;99.90
22698;DHT22;11516;51.612;7.510;2022-10-16T08:12:47;14.80;99.90
22698;DHT22;11516;51.612;7.510;2022-10-16T08:15:13;14.80;99.90
22698;DHT22;11516;51.612;7.510;2022-10-16T08:17:38;14.90;99.90
22698;DHT22;11516;51.612;7.510;2022-10-16T08:20:04;15.20;99.90
22698;DHT22;11516;51.612;7.510;2022-10-16T08:22:30;15.10;99.90
22698;DHT22;11516;51.612;7.510;2022-10-16T08:24:56;15.20;99.90
22698;DHT22;11516;51.612;7.510;2022-10-16T08:27:22;15.20;99.90
22698;DHT22;11516;51.612;7.510;2022-10-16T08:29:48;15.40;99.90
22698;DHT22;11516;51.612;7.510;2022-10-16T08:32:14;15.50;99.90
22698;DHT22;11516;51.612;7.510;2022-10-16T08:34:40;15.60;99.90
22698;DHT22;11516;51.612;7.510;2022-10-16T08:37:05;15.80;99.90
22698;DHT22;11516;51.612;7.510;2022-10-16T08:39:33;15.80;99.90
22698;DHT22;11516;51.612;7.510;2022-10-16T08:42:11;15.70;99.90
22698;DHT22;11516;51.612;7.510;2022-10-16T08:45:21;15.80;99.90
22698;DHT22;11516;51.612;7.510;2022-10-16T08:48:11;15.90;99.90
22698;DHT22;11516;51.612;7.510;2022-10-16T08:50:40;16.00;99.90
22698;DHT22;11516;51.612;7.510;2022-10-16T08:53:09;16.10;99.90
22698;DHT22;11516;51.612;7.510;2022-10-16T08:55:42;16.10;99.90
22698;DHT22;11516;51.612;7.510;2022-10-16T08:58:14;16.10;99.90
22698;DHT22;11516;51.612;7.510;2022-10-16T09:00:42;16.40;99.90
22698;DHT22;11516;51.612;7.510;2022-10-16T09:03:17;16.50;99.90
22698;DHT22;11516;51.612;7.510;2022-10-16T09:11:03;16.60;99.90
22698;DHT22;11516;51.612;7.510;2022-10-16T09:16:34;16.70;99.90
22698;DHT22;11516;51.612;7.510;2022-10-16T09:19:15;16.80;99.90
22698;DHT22;11516;51.612;7.510;2022-10-16T09:21:45;16.90;99.90
22698;DHT22;11516;51.612;7.510;2022-10-16T09:24:16;16.90;99.90
22698;DHT22;11516;51.612;7.510;2022-10-16T09:26:42;17.00;99.90
22698;DHT22;11516;51.612;7.510;2022-10-16T09:29:20;16.90;99.90
22698;DHT22;11516;51.612;7.510;2022-10-16T09:31:46;17.00;99.90
22698;DHT22;11516;51.612;7.510;2022-10-16T09:36:46;17.00;99.90
22698;DHT22;11516;51.612;7.510;2022-10-16T09:39:12;17.00;99.90
22698;DHT22;11516;51.612;7.510;2022-10-16T09:41:40;17.20;99.90
22698;DHT22;11516;51.612;7.510;2022-10-16T09:44:25;17.10;99.90
22698;DHT22;11516;51.612;7.510;2022-10-16T09:47:14;17.10;99.90
22698;DHT22;11516;51.612;7.510;2022-10-16T09:49:54;17.20;99.90
22698;DHT22;11516;51.612;7.510;2022-10-16T09:52:20;17.30;99.90
22698;DHT22;11516;51.612;7.510;2022-10-16T09:55:12;17.30;99.90
22698;DHT22;11516;51.612;7.510;2022-10-16T09:57:49;17.20;99.90
22698;DHT22;11516;51.612;7.510;2022-10-16T10:00:18;17.30;99.90
22698;DHT22;11516;51.612;7.510;2022-10-16T10:02:45;17.40;99.90
22698;DHT22;11516;51.612;7.510;2022-10-16T10:05:37;17.60;99.90
22698;DHT22;11516;51.612;7.510;2022-10-16T10:08:04;17.50;99.90
22698;DHT22;11516;51.612;7.510;2022-10-16T10:10:34;17.40;99.90
22698;DHT22;11516;51.612;7.510;2022-10-16T10:13:02;17.30;99.90
22698;DHT22;11516;51.612;7.510;2022-10-16T10:15:33;17.30;99.90
22698;DHT22;11516;51.612;7.510;2022-10-16T10:18:00;17.40;99.90
22698;DHT22;11516;51.612;7.510;2022-10-16T10:20:34;17.40;99.90
22698;DHT22;11516;51.612;7.510;2022-10-16T10:23:21;17.50;99.90
22698;DHT22;11516;51.612;7.510;2022-10-16T10:26:06;17.40;99.90
22698;DHT22;11516;51.612;7.510;2022-10-16T10:28:47;17.40;99.90
22698;DHT22;11516;51.612;7.510;2022-10-16T10:31:27;17.50;99.90
22698;DHT22;11516;51.612;7.510;2022-10-16T10:36:38;17.40;99.90
22698;DHT22;11516;51.612;7.510;2022-10-16T10:47:46;17.80;99.90
22698;DHT22;11516;51.612;7.510;2022-10-16T10:50:41;18.10;99.90
22698;DHT22;11516;51.612;7.510;2022-10-16T10:55:48;18.10;99.90
22698;DHT22;11516;51.612;7.510;2022-10-16T11:01:12;18.30;99.90
22698;DHT22;11516;51.612;7.510;2022-10-16T11:06:39;18.40;99.90
22698;DHT22;11516;51.612;7.510;2022-10-16T11:09:25;18.50;99.90
22698;DHT22;11516;51.612;7.510;2022-10-16T11:11:56;18.80;99.90
22698;DHT22;11516;51.612;7.510;2022-10-16T11:14:36;19.20;99.90
22698;DHT22;11516;51.612;7.510;2022-10-16T11:17:11;19.60;99.90
22698;DHT22;11516;51.612;7.510;2022-10-16T11:22:30;19.70;99.90
22698;DHT22;11516;51.612;7.510;2022-10-16T11:30:28;20.10;99.90
22698;DHT22;11516;51.612;7.510;2022-10-16T11:35:38;20.50;99.90
22698;DHT22;11516;51.612;7.510;2022-10-16T11:38:19;20.30;99.90
22698;DHT22;11516;51.612;7.510;2022-10-16T11:40:53;20.00;99.90
22698;DHT22;11516;51.612;7.510;2022-10-16T11:43:28;19.90;99.90
22698;DHT22;11516;51.612;7.510;2022-10-16T11:46:00;20.10;99.90
22698;DHT22;11516;51.612;7.510;2022-10-16T11:48:50;20.40;99.90
22698;DHT22;11516;51.612;7.510;2022-10-16T11:56:26;21.90;99.90
22698;DHT22;11516;51.612;7.510;2022-10-16T11:59:06;22.00;99.90
22698;DHT22;11516;51.612;7.510;2022-10-16T12:01:45;22.20;99.90
22698;DHT22;11516;51.612;7.510;2022-10-16T12:04:31;22.10;99.90
22698;DHT22;11516;51.612;7.510;2022-10-16T12:07:08;22.50;99.90
22698;DHT22;11516;51.612;7.510;2022-10-16T12:09:40;22.90;99.90
22698;DHT22;11516;51.612;7.510;2022-10-16T12:12:26;22.70;99.80
22698;DHT22;11516;51.612;7.510;2022-10-16T12:17:37;22.70;98.80
22698;DHT22;11516;51.612;7.510;2022-10-16T12:22:41;22.60;99.00
22698;DHT22;11516;51.612;7.510;2022-10-16T12:25:33;22.20;99.80
22698;DHT22;11516;51.612;7.510;2022-10-16T12:30:30;21.10;99.90
22698;DHT22;11516;51.612;7.510;2022-10-16T12:33:40;21.20;99.90
22698;DHT22;11516;51.612;7.510;2022-10-16T12:35:47;21.60;99.90
22698;DHT22;11516;51.612;7.510;2022-10-16T12:38:21;22.10;99.90
22698;DHT22;11516;51.612;7.510;2022-10-16T12:41:03;22.60;99.90
22698;DHT22;11516;51.612;7.510;2022-10-16T12:46:04;22.60;99.90
22698;DHT22;11516;51.612;7.510;2022-10-16T12:48:30;22.20;99.90
22698;DHT22;11516;51.612;7.510;2022-10-16T12:50:56;22.00;99.90
22698;DHT22;11516;51.612;7.510;2022-10-16T12:53:24;21.60;99.90
22698;DHT22;11516;51.612;7.510;2022-10-16T12:56:04;22.00;99.90
22698;DHT22;11516;51.612;7.510;2022-10-16T13:01:42;22.90;98.30
22698;DHT22;11516;51.612;7.510;2022-10-16T13:10:34;21.00;99.90
22698;DHT22;11516;51.612;7.510;2022-10-16T13:16:11;20.60;99.90
22698;DHT22;11516;51.612;7.510;2022-10-16T13:19:18;20.50;99.90
22698;DHT22;11516;51.612;7.510;2022-10-16T13:22:21;20.50;99.90
22698;DHT22;11516;51.612;7.510;2022-10-16T13:30:02;21.40;99.90
22698;DHT22;11516;51.612;7.510;2022-10-16T13:32:34;21.90;99.90
22698;DHT22;11516;51.612;7.510;2022-10-16T13:35:00;22.70;99.90
22698;DHT22;11516;51.612;7.510;2022-10-16T13:37:26;23.00;98.80
22698;DHT22;11516;51.612;7.510;2022-10-16T13:40:24;22.60;99.70
22698;DHT22;11516;51.612;7.510;2022-10-16T13:42:51;22.80;98.00
22698;DHT22;11516;51.612;7.510;2022-10-16T13:45:20;23.30;97.40
22698;DHT22;11516;51.612;7.510;2022-10-16T13:47:46;22.90;95.50
22698;DHT22;11516;51.612;7.510;2022-10-16T13:50:14;22.10;97.70
22698;DHT22;11516;51.612;7.510;2022-10-16T13:52:40;22.60;97.80
22698;DHT22;11516;51.612;7.510;2022-10-16T13:55:22;22.60;97.00
22698;DHT22;11516;51.612;7.510;2022-10-16T13:57:48;22.50;97.70
22698;DHT22;11516;51.612;7.510;2022-10-16T14:00:25;23.10;97.10
22698;DHT22;11516;51.612;7.510;2022-10-16T14:03:16;23.40;95.10
22698;DHT22;11516;51.612;7.510;2022-10-16T14:05:58;22.80;96.40
22698;DHT22;11516;51.612;7.510;2022-10-16T14:08:25;22.70;96.20
22698;DHT22;11516;51.612;7.510;2022-10-16T14:11:06;22.10;96.90
22698;DHT22;11516;51.612;7.510;2022-10-16T14:13:42;21.50;99.50
22698;DHT22;11516;51.612;7.510;2022-10-16T14:16:24;21.10;99.90
22698;DHT22;11516;51.612;7.510;2022-10-16T14:19:02;21.00;99.90
22698;DHT22;11516;51.612;7.510;2022-10-16T14:21:32;21.30;99.90
22698;DHT22;11516;51.612;7.510;2022-10-16T14:24:26;21.60;99.80
22698;DHT22;11516;51.612;7.510;2022-10-16T14:26:51;21.80;99.20
22698;DHT22;11516;51.612;7.510;2022-10-16T14:29:20;22.00;98.20
22698;DHT22;11516;51.612;7.510;2022-10-16T14:32:00;21.80;98.30
22698;DHT22;11516;51.612;7.510;2022-10-16T14:34:30;22.30;96.60
22698;DHT22;11516;51.612;7.510;2022-10-16T14:37:00;22.30;95.80
22698;DHT22;11516;51.612;7.510;2022-10-16T14:39:27;22.40;95.50
22698;DHT22;11516;51.612;7.510;2022-10-16T14:41:56;22.50;95.90
22698;DHT22;11516;51.612;7.510;2022-10-16T14:44:29;22.10;96.00
22698;DHT22;11516;51.612;7.510;2022-10-16T14:46:56;21.50;97.70
22698;DHT22;11516;51.612;7.510;2022-10-16T14:49:23;21.20;98.90
22698;DHT22;11516;51.612;7.510;2022-10-16T14:51:49;20.60;99.90
22698;DHT22;11516;51.612;7.510;2022-10-16T14:54:17;20.20;99.90
22698;DHT22;11516;51.612;7.510;2022-10-16T14:59:30;19.60;99.90
22698;DHT22;11516;51.612;7.510;2022-10-16T15:02:25;19.60;99.90
22698;DHT22;11516;51.612;7.510;2022-10-16T15:04:48;19.60;99.90
22698;DHT22;11516;51.612;7.510;2022-10-16T15:07:17;19.60;99.90
22698;DHT22;11516;51.612;7.510;2022-10-16T15:09:42;19.70;99.90
22698;DHT22;11516;51.612;7.510;2022-10-16T15:12:08;19.70;99.90
22698;DHT22;11516;51.612;7.510;2022-10-16T15:14:34;19.70;99.90
22698;DHT22;11516;51.612;7.510;2022-10-16T15:17:00;19.80;99.90
22698;DHT22;11516;51.612;7.510;2022-10-16T15:19:25;19.90;99.90
22698;DHT22;11516;51.612;7.510;2022-10-16T15:21:51;19.70;99.90
22698;DHT22;11516;51.612;7.510;2022-10-16T15:24:19;19.60;99.90
22698;DHT22;11516;51.612;7.510;2022-10-16T15:26:45;19.50;99.90
22698;DHT22;11516;51.612;7.510;2022-10-16T15:29:14;19.40;99.90
22698;DHT22;11516;51.612;7.510;2022-10-16T15:31:39;19.40;99.90
22698;DHT22;11516;51.612;7.510;2022-10-16T15:34:13;19.30;99.90
22698;DHT22;11516;51.612;7.510;2022-10-16T15:36:47;19.10;99.90
22698;DHT22;11516;51.612;7.510;2022-10-16T15:39:19;19.00;99.90
22698;DHT22;11516;51.612;7.510;2022-10-16T15:41:47;19.00;99.90
22698;DHT22;11516;51.612;7.510;2022-10-16T15:44:16;19.00;99.90
22698;DHT22;11516;51.612;7.510;2022-10-16T15:46:42;19.00;99.90
22698;DHT22;11516;51.612;7.510;2022-10-16T15:49:08;18.90;99.90
22698;DHT22;11516;51.612;7.510;2022-10-16T15:51:38;18.80;99.90
22698;DHT22;11516;51.612;7.510;2022-10-16T15:54:04;18.70;99.90
22698;DHT22;11516;51.612;7.510;2022-10-16T15:56:29;18.50;99.90
22698;DHT22;11516;51.612;7.510;2022-10-16T15:58:58;18.40;99.90
22698;DHT22;11516;51.612;7.510;2022-10-16T16:01:27;18.40;99.90
22698;DHT22;11516;51.612;7.510;2022-10-16T16:03:55;18.20;99.90
22698;DHT22;11516;51.612;7.510;2022-10-16T16:06:22;18.30;99.90
22698;DHT22;11516;51.612;7.510;2022-10-16T16:08:49;18.20;99.90
22698;DHT22;11516;51.612;7.510;2022-10-16T16:11:22;17.90;99.90
22698;DHT22;11516;51.612;7.510;2022-10-16T16:13:48;17.90;99.90
22698;DHT22;11516;51.612;7.510;2022-10-16T16:16:24;17.90;99.90
22698;DHT22;11516;51.612;7.510;2022-10-16T16:18:53;17.90;99.90
22698;DHT22;11516;51.612;7.510;2022-10-16T16:21:18;17.90;99.90
22698;DHT22;11516;51.612;7.510;2022-10-16T16:23:44;17.80;99.90
22698;DHT22;11516;51.612;7.510;2022-10-16T16:26:23;17.70;99.90
22698;DHT22;11516;51.612;7.510;2022-10-16T16:28:53;17.70;99.90
22698;DHT22;11516;51.612;7.510;2022-10-16T16:31:20;17.80;99.90
22698;DHT22;11516;51.612;7.510;2022-10-16T16:33:45;17.70;99.90
22698;DHT22;11516;51.612;7.510;2022-10-16T16:36:11;17.60;99.90
22698;DHT22;11516;51.612;7.510;2022-10-16T16:38:40;17.50;99.90
22698;DHT22;11516;51.612;7.510;2022-10-16T16:41:17;17.50;99.90
22698;DHT22;11516;51.612;7.510;2022-10-16T16:43:43;17.40;99.90
22698;DHT22;11516;51.612;7.510;2022-10-16T16:46:09;17.30;99.90
22698;DHT22;11516;51.612;7.510;2022-10-16T16:48:35;17.20;99.90
22698;DHT22;11516;51.612;7.510;2022-10-16T16:51:09;17.20;99.90
22698;DHT22;11516;51.612;7.510;2022-10-16T16:53:37;17.20;99.90
22698;DHT22;11516;51.612;7.510;2022-10-16T16:56:04;17.20;99.90
22698;DHT22;11516;51.612;7.510;2022-10-16T16:58:30;17.10;99.90
22698;DHT22;11516;51.612;7.510;2022-10-16T17:00:55;17.10;99.90
22698;DHT22;11516;51.612;7.510;2022-10-16T17:03:21;17.00;99.90
22698;DHT22;11516;51.612;7.510;2022-10-16T17:06:01;17.00;99.90
22698;DHT22;11516;51.612;7.510;2022-10-16T17:08:27;17.00;99.90
22698;DHT22;11516;51.612;7.510;2022-10-16T17:10:53;16.90;99.90
22698;DHT22;11516;51.612;7.510;2022-10-16T17:13:21;16.90;99.90
22698;DHT22;11516;51.612;7.510;2022-10-16T17:15:49;16.80;99.90
22698;DHT22;11516;51.612;7.510;2022-10-16T17:18:15;16.70;99.90